sensor_id;sensor_type;location;lat;lon;timestamp;P1;durP1;ratioP1;P2;durP2;ratioP2
16975;SDS011;8604;48.148;-1.786;2023-06-10T00:00:05;7.80;;;6.97;;
16975;SDS011;8604;48.148;-1.786;2023-06-10T00:02:43;8.23;;;7.37;;
16975;SDS011;8604;48.148;-1.786;2023-06-10T00:05:11;9.47;;;8.00;;
16975;SDS011;8604;48.148;-1.786;2023-06-10T00:07:40;11.13;;;10.03;;
16975;SDS011;8604;48.148;-1.786;2023-06-10T00:10:08;10.20;;;9.10;;
16975;SDS011;8604;48.148;-1.786;2023-06-10T00:12:38;10.00;;;7.60;;
16975;SDS011;8604;48.148;-1.786;2023-06-10T00:15:07;9.13;;;7.83;;
16975;SDS011;8604;48.148;-1.786;2023-06-10T00:17:36;8.90;;;8.00;;
16975;SDS011;8604;48.148;-1.786;2023-06-10T00:20:08;11.53;;;8.10;;
16975;SDS011;8604;48.148;-1.786;2023-06-10T00:22:39;11.90;;;8.93;;
16975;SDS011;8604;48.148;-1.786;2023-06-10T00:25:08;10.67;;;7.80;;
16975;SDS011;8604;48.148;-1.786;2023-06-10T00:27:38;11.47;;;8.10;;
16975;SDS011;8604;48.148;-1.786;2023-06-10T00:30:07;12.00;;;8.20;;
16975;SDS011;8604;48.148;-1.786;2023-06-10T00:32:36;13.87;;;8.90;;
16975;SDS011;8604;48.148;-1.786;2023-06-10T00:35:05;10.17;;;9.03;;
16975;SDS011;8604;48.148;-1.786;2023-06-10T00:37:36;10.80;;;8.90;;
16975;SDS011;8604;48.148;-1.786;2023-06-10T00:40:05;13.27;;;9.33;;
16975;SDS011;8604;48.148;-1.786;2023-06-10T00:42:36;12.50;;;9.33;;
16975;SDS011;8604;48.148;-1.786;2023-06-10T00:45:05;12.37;;;9.53;;
16975;SDS011;8604;48.148;-1.786;2023-06-10T00:47:35;12.13;;;9.50;;
16975;SDS011;8604;48.148;-1.786;2023-06-10T00:50:05;12.67;;;9.27;;
16975;SDS011;8604;48.148;-1.786;2023-06-10T00:52:35;11.43;;;8.90;;
16975;SDS011;8604;48.148;-1.786;2023-06-10T00:55:04;11.80;;;9.77;;
16975;SDS011;8604;48.148;-1.786;2023-06-10T00:57:34;13.20;;;9.70;;
16975;SDS011;8604;48.148;-1.786;2023-06-10T01:00:04;16.43;;;11.53;;
16975;SDS011;8604;48.148;-1.786;2023-06-10T01:02:35;13.20;;;9.80;;
16975;SDS011;8604;48.148;-1.786;2023-06-10T01:05:04;11.60;;;9.13;;
16975;SDS011;8604;48.148;-1.786;2023-06-10T01:07:34;11.60;;;8.90;;
16975;SDS011;8604;48.148;-1.786;2023-06-10T01:10:14;12.27;;;9.83;;
16975;SDS011;8604;48.148;-1.786;2023-06-10T01:12:49;11.83;;;9.87;;
16975;SDS011;8604;48.148;-1.786;2023-06-10T01:15:26;11.67;;;10.20;;
16975;SDS011;8604;48.148;-1.786;2023-06-10T01:17:55;10.97;;;9.50;;
16975;SDS011;8604;48.148;-1.786;2023-06-10T01:20:25;11.40;;;10.23;;
16975;SDS011;8604;48.148;-1.786;2023-06-10T01:22:57;15.70;;;11.40;;
16975;SDS011;8604;48.148;-1.786;2023-06-10T01:25:27;14.00;;;9.97;;
16975;SDS011;8604;48.148;-1.786;2023-06-10T01:28:00;10.93;;;9.70;;
16975;SDS011;8604;48.148;-1.786;2023-06-10T01:30:35;11.20;;;9.47;;
16975;SDS011;8604;48.148;-1.786;2023-06-10T01:33:10;14.40;;;11.23;;
16975;SDS011;8604;48.148;-1.786;2023-06-10T01:35:40;13.17;;;10.43;;
16975;SDS011;8604;48.148;-1.786;2023-06-10T01:38:10;13.07;;;10.27;;
16975;SDS011;8604;48.148;-1.786;2023-06-10T01:40:42;10.67;;;9.57;;
16975;SDS011;8604;48.148;-1.786;2023-06-10T01:43:10;12.23;;;10.50;;
16975;SDS011;8604;48.148;-1.786;2023-06-10T01:45:39;11.33;;;10.20;;
16975;SDS011;8604;48.148;-1.786;2023-06-10T01:48:08;12.37;;;9.23;;
16975;SDS011;8604;48.148;-1.786;2023-06-10T01:50:36;11.23;;;9.67;;
16975;SDS011;8604;48.148;-1.786;2023-06-10T01:53:04;12.80;;;9.63;;
16975;SDS011;8604;48.148;-1.786;2023-06-10T01:55:34;10.43;;;9.33;;
16975;SDS011;8604;48.148;-1.786;2023-06-10T01:58:03;10.70;;;9.27;;
16975;SDS011;8604;48.148;-1.786;2023-06-10T02:00:31;12.37;;;9.47;;
16975;SDS011;8604;48.148;-1.786;2023-06-10T02:03:00;11.30;;;10.10;;
16975;SDS011;8604;48.148;-1.786;2023-06-10T02:05:29;17.83;;;13.13;;
16975;SDS011;8604;48.148;-1.786;2023-06-10T02:07:57;14.37;;;12.57;;
16975;SDS011;8604;48.148;-1.786;2023-06-10T02:10:26;15.13;;;12.53;;
16975;SDS011;8604;48.148;-1.786;2023-06-10T02:12:57;13.13;;;10.90;;
16975;SDS011;8604;48.148;-1.786;2023-06-10T02:15:26;11.97;;;10.47;;
16975;SDS011;8604;48.148;-1.786;2023-06-10T02:17:54;13.27;;;10.67;;
16975;SDS011;8604;48.148;-1.786;2023-06-10T02:20:23;12.50;;;11.20;;
16975;SDS011;8604;48.148;-1.786;2023-06-10T02:22:51;13.43;;;10.13;;
16975;SDS011;8604;48.148;-1.786;2023-06-10T02:25:20;10.73;;;9.67;;
16975;SDS011;8604;48.148;-1.786;2023-06-10T02:27:49;12.87;;;10.47;;
16975;SDS011;8604;48.148;-1.786;2023-06-10T02:30:19;11.70;;;9.97;;
16975;SDS011;8604;48.148;-1.786;2023-06-10T02:32:48;12.33;;;10.90;;
16975;SDS011;8604;48.148;-1.786;2023-06-10T02:35:18;14.40;;;10.37;;
16975;SDS011;8604;48.148;-1.786;2023-06-10T02:37:47;12.80;;;11.33;;
16975;SDS011;8604;48.148;-1.786;2023-06-10T02:40:16;12.43;;;11.03;;
16975;SDS011;8604;48.148;-1.786;2023-06-10T02:42:44;14.10;;;10.33;;
16975;SDS011;8604;48.148;-1.786;2023-06-10T02:45:13;12.37;;;10.73;;
16975;SDS011;8604;48.148;-1.786;2023-06-10T02:47:44;13.90;;;11.40;;
16975;SDS011;8604;48.148;-1.786;2023-06-10T02:50:12;14.63;;;10.77;;
16975;SDS011;8604;48.148;-1.786;2023-06-10T02:52:59;13.77;;;10.90;;
16975;SDS011;8604;48.148;-1.786;2023-06-10T02:55:29;13.40;;;11.47;;
16975;SDS011;8604;48.148;-1.786;2023-06-10T02:58:02;13.57;;;11.20;;
16975;SDS011;8604;48.148;-1.786;2023-06-10T03:00:32;15.43;;;11.87;;
16975;SDS011;8604;48.148;-1.786;2023-06-10T03:03:02;13.40;;;12.00;;
16975;SDS011;8604;48.148;-1.786;2023-06-10T03:05:39;15.27;;;11.97;;
16975;SDS011;8604;48.148;-1.786;2023-06-10T03:08:08;14.37;;;11.37;;
16975;SDS011;8604;48.148;-1.786;2023-06-10T03:10:40;12.97;;;11.23;;
16975;SDS011;8604;48.148;-1.786;2023-06-10T03:13:10;14.03;;;12.40;;
16975;SDS011;8604;48.148;-1.786;2023-06-10T03:15:39;12.90;;;11.50;;
16975;SDS011;8604;48.148;-1.786;2023-06-10T03:18:12;11.70;;;10.50;;
16975;SDS011;8604;48.148;-1.786;2023-06-10T03:20:42;16.10;;;12.73;;
16975;SDS011;8604;48.148;-1.786;2023-06-10T03:23:11;15.90;;;13.53;;
16975;SDS011;8604;48.148;-1.786;2023-06-10T03:25:39;16.27;;;12.83;;
16975;SDS011;8604;48.148;-1.786;2023-06-10T03:28:11;15.90;;;14.20;;
16975;SDS011;8604;48.148;-1.786;2023-06-10T03:30:40;17.00;;;13.17;;
16975;SDS011;8604;48.148;-1.786;2023-06-10T03:33:09;17.10;;;12.53;;
16975;SDS011;8604;48.148;-1.786;2023-06-10T03:35:41;17.93;;;13.97;;
16975;SDS011;8604;48.148;-1.786;2023-06-10T03:38:10;15.40;;;13.87;;
16975;SDS011;8604;48.148;-1.786;2023-06-10T03:40:39;17.03;;;13.97;;
16975;SDS011;8604;48.148;-1.786;2023-06-10T03:43:07;16.00;;;13.37;;
16975;SDS011;8604;48.148;-1.786;2023-06-10T03:45:36;14.67;;;13.13;;
16975;SDS011;8604;48.148;-1.786;2023-06-10T03:48:05;15.27;;;12.97;;
16975;SDS011;8604;48.148;-1.786;2023-06-10T03:50:44;15.10;;;12.27;;
16975;SDS011;8604;48.148;-1.786;2023-06-10T03:53:14;16.77;;;13.50;;
16975;SDS011;8604;48.148;-1.786;2023-06-10T03:55:43;16.50;;;13.47;;
16975;SDS011;8604;48.148;-1.786;2023-06-10T03:58:14;18.97;;;13.87;;
16975;SDS011;8604;48.148;-1.786;2023-06-10T04:00:44;18.30;;;12.77;;
16975;SDS011;8604;48.148;-1.786;2023-06-10T04:03:13;17.37;;;13.20;;
16975;SDS011;8604;48.148;-1.786;2023-06-10T04:05:50;15.67;;;12.30;;
16975;SDS011;8604;48.148;-1.786;2023-06-10T04:08:19;17.93;;;12.40;;
16975;SDS011;8604;48.148;-1.786;2023-06-10T04:10:48;14.57;;;11.90;;
16975;SDS011;8604;48.148;-1.786;2023-06-10T04:13:17;17.07;;;11.90;;
16975;SDS011;8604;48.148;-1.786;2023-06-10T04:15:53;13.57;;;11.60;;
16975;SDS011;8604;48.148;-1.786;2023-06-10T04:18:22;15.37;;;12.07;;
16975;SDS011;8604;48.148;-1.786;2023-06-10T04:20:55;16.47;;;12.70;;
16975;SDS011;8604;48.148;-1.786;2023-06-10T04:23:24;13.77;;;11.93;;
16975;SDS011;8604;48.148;-1.786;2023-06-10T04:25:53;13.97;;;11.93;;
16975;SDS011;8604;48.148;-1.786;2023-06-10T04:28:22;16.20;;;12.10;;
16975;SDS011;8604;48.148;-1.786;2023-06-10T04:30:51;16.43;;;12.87;;
16975;SDS011;8604;48.148;-1.786;2023-06-10T04:33:19;17.00;;;13.20;;
16975;SDS011;8604;48.148;-1.786;2023-06-10T04:35:50;15.70;;;12.53;;
16975;SDS011;8604;48.148;-1.786;2023-06-10T04:38:23;15.63;;;12.80;;
16975;SDS011;8604;48.148;-1.786;2023-06-10T04:40:51;16.83;;;12.90;;
16975;SDS011;8604;48.148;-1.786;2023-06-10T04:43:21;20.30;;;14.53;;
16975;SDS011;8604;48.148;-1.786;2023-06-10T04:45:50;15.67;;;14.00;;
16975;SDS011;8604;48.148;-1.786;2023-06-10T04:48:18;17.00;;;14.70;;
16975;SDS011;8604;48.148;-1.786;2023-06-10T04:50:47;16.13;;;13.40;;
16975;SDS011;8604;48.148;-1.786;2023-06-10T04:53:15;18.40;;;14.70;;
16975;SDS011;8604;48.148;-1.786;2023-06-10T04:55:47;18.53;;;14.77;;
16975;SDS011;8604;48.148;-1.786;2023-06-10T04:58:15;16.67;;;13.10;;
16975;SDS011;8604;48.148;-1.786;2023-06-10T05:00:44;17.00;;;14.40;;
16975;SDS011;8604;48.148;-1.786;2023-06-10T05:03:12;19.43;;;14.70;;
16975;SDS011;8604;48.148;-1.786;2023-06-10T05:05:41;14.73;;;13.23;;
16975;SDS011;8604;48.148;-1.786;2023-06-10T05:08:09;17.47;;;14.00;;
16975;SDS011;8604;48.148;-1.786;2023-06-10T05:10:37;16.87;;;14.77;;
16975;SDS011;8604;48.148;-1.786;2023-06-10T05:13:07;19.27;;;15.43;;
16975;SDS011;8604;48.148;-1.786;2023-06-10T05:15:36;20.63;;;15.47;;
16975;SDS011;8604;48.148;-1.786;2023-06-10T05:18:04;19.23;;;14.90;;
16975;SDS011;8604;48.148;-1.786;2023-06-10T05:20:33;17.07;;;14.57;;
16975;SDS011;8604;48.148;-1.786;2023-06-10T05:23:01;19.07;;;15.10;;
16975;SDS011;8604;48.148;-1.786;2023-06-10T05:25:30;15.03;;;12.87;;
16975;SDS011;8604;48.148;-1.786;2023-06-10T05:28:01;18.73;;;15.57;;
16975;SDS011;8604;48.148;-1.786;2023-06-10T05:30:30;16.70;;;13.67;;
16975;SDS011;8604;48.148;-1.786;2023-06-10T05:32:59;18.47;;;13.43;;
16975;SDS011;8604;48.148;-1.786;2023-06-10T05:35:27;18.13;;;14.30;;
16975;SDS011;8604;48.148;-1.786;2023-06-10T05:37:56;15.70;;;13.43;;
16975;SDS011;8604;48.148;-1.786;2023-06-10T05:40:29;18.07;;;13.23;;
16975;SDS011;8604;48.148;-1.786;2023-06-10T05:42:57;18.23;;;15.53;;
16975;SDS011;8604;48.148;-1.786;2023-06-10T21:33:05;12.07;;;9.37;;
16975;SDS011;8604;48.148;-1.786;2023-06-10T21:35:34;12.33;;;8.93;;
16975;SDS011;8604;48.148;-1.786;2023-06-10T21:38:02;12.67;;;9.90;;
16975;SDS011;8604;48.148;-1.786;2023-06-10T21:40:31;10.63;;;8.73;;
16975;SDS011;8604;48.148;-1.786;2023-06-10T21:43:00;10.90;;;9.03;;
16975;SDS011;8604;48.148;-1.786;2023-06-10T21:45:28;10.50;;;8.00;;
16975;SDS011;8604;48.148;-1.786;2023-06-10T21:47:56;11.27;;;8.80;;
16975;SDS011;8604;48.148;-1.786;2023-06-10T21:50:26;10.47;;;7.63;;
16975;SDS011;8604;48.148;-1.786;2023-06-10T21:52:54;9.40;;;7.30;;
16975;SDS011;8604;48.148;-1.786;2023-06-10T21:55:26;8.93;;;7.53;;
16975;SDS011;8604;48.148;-1.786;2023-06-10T21:57:55;9.10;;;7.07;;
16975;SDS011;8604;48.148;-1.786;2023-06-10T22:00:23;9.90;;;7.07;;
16975;SDS011;8604;48.148;-1.786;2023-06-10T22:02:52;7.00;;;5.30;;
16975;SDS011;8604;48.148;-1.786;2023-06-10T22:05:20;6.27;;;5.17;;
16975;SDS011;8604;48.148;-1.786;2023-06-10T22:07:51;7.77;;;5.60;;
16975;SDS011;8604;48.148;-1.786;2023-06-10T22:10:20;7.87;;;5.30;;
16975;SDS011;8604;48.148;-1.786;2023-06-10T22:12:49;6.80;;;4.77;;
16975;SDS011;8604;48.148;-1.786;2023-06-10T22:15:18;6.37;;;4.90;;
16975;SDS011;8604;48.148;-1.786;2023-06-10T22:17:46;7.70;;;4.93;;
16975;SDS011;8604;48.148;-1.786;2023-06-10T22:20:15;5.67;;;4.00;;
16975;SDS011;8604;48.148;-1.786;2023-06-10T22:22:43;5.40;;;4.10;;
16975;SDS011;8604;48.148;-1.786;2023-06-10T22:25:14;6.67;;;4.80;;
16975;SDS011;8604;48.148;-1.786;2023-06-10T22:27:42;7.30;;;4.47;;
16975;SDS011;8604;48.148;-1.786;2023-06-10T22:30:11;6.20;;;4.40;;
16975;SDS011;8604;48.148;-1.786;2023-06-10T22:32:39;6.93;;;3.77;;
16975;SDS011;8604;48.148;-1.786;2023-06-10T22:35:09;5.70;;;4.17;;
16975;SDS011;8604;48.148;-1.786;2023-06-10T22:37:38;6.10;;;4.00;;
16975;SDS011;8604;48.148;-1.786;2023-06-10T22:40:07;6.23;;;4.60;;
16975;SDS011;8604;48.148;-1.786;2023-06-10T22:42:37;6.67;;;4.13;;
16975;SDS011;8604;48.148;-1.786;2023-06-10T22:45:06;7.10;;;4.03;;
16975;SDS011;8604;48.148;-1.786;2023-06-10T22:47:35;7.33;;;4.20;;
16975;SDS011;8604;48.148;-1.786;2023-06-10T22:50:04;7.00;;;4.20;;
16975;SDS011;8604;48.148;-1.786;2023-06-10T22:52:33;4.97;;;3.67;;
16975;SDS011;8604;48.148;-1.786;2023-06-10T22:55:02;5.87;;;3.80;;
16975;SDS011;8604;48.148;-1.786;2023-06-10T22:57:31;5.67;;;3.70;;
16975;SDS011;8604;48.148;-1.786;2023-06-10T23:00:01;7.07;;;3.60;;
16975;SDS011;8604;48.148;-1.786;2023-06-10T23:02:31;6.80;;;3.90;;
16975;SDS011;8604;48.148;-1.786;2023-06-10T23:04:59;5.20;;;3.90;;
16975;SDS011;8604;48.148;-1.786;2023-06-10T23:07:28;5.37;;;3.73;;
16975;SDS011;8604;48.148;-1.786;2023-06-10T23:09:56;5.13;;;3.43;;
16975;SDS011;8604;48.148;-1.786;2023-06-10T23:12:24;6.60;;;3.90;;
16975;SDS011;8604;48.148;-1.786;2023-06-10T23:14:53;6.10;;;3.70;;
16975;SDS011;8604;48.148;-1.786;2023-06-10T23:17:23;5.93;;;3.80;;
16975;SDS011;8604;48.148;-1.786;2023-06-10T23:19:56;5.43;;;3.70;;
16975;SDS011;8604;48.148;-1.786;2023-06-10T23:22:25;6.20;;;4.03;;
16975;SDS011;8604;48.148;-1.786;2023-06-10T23:24:57;7.17;;;4.20;;
16975;SDS011;8604;48.148;-1.786;2023-06-10T23:27:27;6.07;;;4.13;;
16975;SDS011;8604;48.148;-1.786;2023-06-10T23:29:56;6.37;;;3.93;;
16975;SDS011;8604;48.148;-1.786;2023-06-10T23:32:27;6.17;;;4.03;;
16975;SDS011;8604;48.148;-1.786;2023-06-10T23:34:57;5.17;;;3.90;;
16975;SDS011;8604;48.148;-1.786;2023-06-10T23:37:26;5.40;;;4.00;;
16975;SDS011;8604;48.148;-1.786;2023-06-10T23:39:54;5.80;;;3.70;;
16975;SDS011;8604;48.148;-1.786;2023-06-10T23:42:23;7.40;;;4.63;;
16975;SDS011;8604;48.148;-1.786;2023-06-10T23:44:52;8.23;;;4.83;;
16975;SDS011;8604;48.148;-1.786;2023-06-10T23:47:21;6.57;;;4.10;;
16975;SDS011;8604;48.148;-1.786;2023-06-10T23:49:51;7.67;;;4.63;;
16975;SDS011;8604;48.148;-1.786;2023-06-10T23:52:20;8.20;;;5.10;;
16975;SDS011;8604;48.148;-1.786;2023-06-10T23:54:48;7.40;;;5.03;;
16975;SDS011;8604;48.148;-1.786;2023-06-10T23:57:17;7.33;;;5.13;;
16975;SDS011;8604;48.148;-1.786;2023-06-10T23:59:45;7.83;;;5.10;;
